createdAt,value
2022-10-31T00:00:07.989Z,87.52
2022-10-31T00:05:36.420Z,87.85
2022-10-31T00:10:41.207Z,88.46
2022-10-31T00:15:45.206Z,89.19
2022-10-31T00:20:49.976Z,89.81
2022-10-31T00:25:53.531Z,89.87
2022-10-31T00:31:06.403Z,89.72
2022-10-31T00:36:13.472Z,89.44
2022-10-31T00:41:19.836Z,89.32
2022-10-31T00:46:24.649Z,89.30
2022-10-31T00:51:28.042Z,89.41
2022-10-31T00:56:31.487Z,89.39
2022-10-31T01:01:35.639Z,89.33
2022-10-31T01:06:38.965Z,89.35
2022-10-31T01:11:42.293Z,89.00
2022-10-31T01:16:46.333Z,88.91
2022-10-31T01:21:51.276Z,88.86
2022-10-31T01:26:55.264Z,88.78
2022-10-31T01:31:58.590Z,88.71
2022-10-31T01:37:02.068Z,89.11
2022-10-31T01:42:05.646Z,89.47
2022-10-31T01:47:19.345Z,89.67
2022-10-31T01:52:24.053Z,89.91
2022-10-31T01:57:27.764Z,90.04
2022-10-31T02:02:32.092Z,90.04
2022-10-31T02:07:43.852Z,89.75
2022-10-31T02:12:47.436Z,89.56
2022-10-31T02:17:52.713Z,89.49
2022-10-31T02:23:21.327Z,89.66
2022-10-31T02:28:50.070Z,89.97
2022-10-31T02:33:57.465Z,90.59
2022-10-31T02:39:14.494Z,90.77
2022-10-31T02:44:32.069Z,90.54
2022-10-31T02:49:49.746Z,90.44
2022-10-31T02:54:53.902Z,90.55
2022-10-31T03:00:01.826Z,90.68
2022-10-31T03:05:48.099Z,90.72
2022-10-31T03:10:51.514Z,91.10
2022-10-31T03:16:09.643Z,91.36
2022-10-31T03:21:15.877Z,91.37
2022-10-31T03:26:21.401Z,91.08
2022-10-31T03:31:28.274Z,91.09
2022-10-31T03:36:34.557Z,91.08
2022-10-31T03:41:45.470Z,91.05
2022-10-31T03:46:50.687Z,91.09
2022-10-31T03:52:20.911Z,90.97
2022-10-31T03:57:43.224Z,90.90
2022-10-31T04:03:17.793Z,90.90
2022-10-31T04:08:26.616Z,91.17
2022-10-31T04:13:33.417Z,91.38
2022-10-31T04:18:45.139Z,91.34
2022-10-31T04:23:48.811Z,91.30
2022-10-31T04:29:01.576Z,91.31
2022-10-31T04:34:05.234Z,92.07
2022-10-31T04:39:08.522Z,92.18
2022-10-31T04:44:18.760Z,92.03
2022-10-31T04:49:25.086Z,92.01
2022-10-31T04:54:29.638Z,92.03
2022-10-31T05:00:15.951Z,92.08
2022-10-31T05:05:28.722Z,92.06
2022-10-31T05:10:32.532Z,91.95
2022-10-31T05:15:37.174Z,91.89
2022-10-31T05:20:59.155Z,92.18
2022-10-31T05:26:13.551Z,92.26
2022-10-31T05:31:17.560Z,92.28
2022-10-31T05:36:21.590Z,92.41
2022-10-31T05:41:30.871Z,92.51
2022-10-31T05:46:49.505Z,92.59
2022-10-31T05:52:11.719Z,92.65
2022-10-31T05:57:21.191Z,92.53
2022-10-31T06:02:24.995Z,92.48
2022-10-31T06:08:01.196Z,92.74
2022-10-31T06:13:08.101Z,92.87
2022-10-31T06:18:17.343Z,91.58
2022-10-31T06:23:23.970Z,90.35
2022-10-31T06:28:31.117Z,89.95
2022-10-31T06:33:47.490Z,90.61
2022-10-31T06:38:52.264Z,91.04
2022-10-31T06:43:56.974Z,91.52
2022-10-31T06:49:20.779Z,91.49
2022-10-31T06:54:30.469Z,91.42
2022-10-31T06:59:34.936Z,91.54
2022-10-31T07:04:52.798Z,91.63
2022-10-31T07:09:56.281Z,91.62
2022-10-31T07:15:16.394Z,91.72
2022-10-31T07:20:20.604Z,91.84
2022-10-31T07:25:25.054Z,91.91
2022-10-31T07:30:44.094Z,91.98
2022-10-31T07:36:00.081Z,92.03
2022-10-31T07:41:10.116Z,92.11
2022-10-31T07:46:17.565Z,92.19
2022-10-31T07:51:45.537Z,91.03
2022-10-31T07:57:09.127Z,91.27
2022-10-31T08:02:13.601Z,91.23
2022-10-31T08:07:27.685Z,90.90
2022-10-31T08:12:35.003Z,89.58
2022-10-31T08:17:43.819Z,89.62
2022-10-31T08:23:04.192Z,89.65
2022-10-31T08:28:20.674Z,90.48
2022-10-31T08:33:27.559Z,89.18
2022-10-31T08:39:11.482Z,87.71
2022-10-31T08:44:18.655Z,86.89
2022-10-31T08:49:22.231Z,87.69
2022-10-31T08:54:25.958Z,87.15
2022-10-31T08:59:32.330Z,84.67
2022-10-31T09:04:59.645Z,84.22
2022-10-31T09:10:03.697Z,82.06
2022-10-31T09:15:17.264Z,81.15
2022-10-31T09:20:37.968Z,81.12
2022-10-31T09:25:50.655Z,80.05
2022-10-31T09:31:19.096Z,79.45
2022-10-31T09:36:48.144Z,75.93
2022-10-31T09:42:27.143Z,74.35
2022-10-31T09:47:50.402Z,72.46
2022-10-31T09:53:22.933Z,73.49
2022-10-31T09:58:34.137Z,72.15
2022-10-31T10:03:44.496Z,70.65
2022-10-31T10:09:09.899Z,69.96
2022-10-31T10:14:44.734Z,70.09
2022-10-31T10:20:03.583Z,69.84
2022-10-31T10:25:17.722Z,70.07
2022-10-31T10:30:46.173Z,69.34
2022-10-31T10:36:02.983Z,69.23
2022-10-31T10:41:21.357Z,69.25
2022-10-31T10:47:01.468Z,68.19
2022-10-31T10:57:44.365Z,68.16
2022-10-31T11:02:49.183Z,68.19
2022-10-31T11:07:54.893Z,67.68
2022-10-31T11:13:05.238Z,67.17
2022-10-31T11:23:29.015Z,64.80
2022-10-31T11:28:36.196Z,65.48
2022-10-31T11:33:49.394Z,64.08
2022-10-31T11:38:53.428Z,65.18
2022-10-31T11:44:06.057Z,65.22
2022-10-31T11:49:47.472Z,65.17
2022-10-31T11:54:56.798Z,64.22
2022-10-31T12:00:04.693Z,63.68
2022-10-31T12:05:34.345Z,63.82
2022-10-31T12:11:27.635Z,63.37
2022-10-31T12:16:55.894Z,63.27
2022-10-31T12:22:17.806Z,63.91
2022-10-31T12:27:42.516Z,63.09
2022-10-31T12:32:53.642Z,62.79
2022-10-31T12:38:19.037Z,63.19
2022-10-31T12:43:25.917Z,61.18
2022-10-31T12:48:52.803Z,62.14
2022-10-31T12:54:29.097Z,62.78
2022-10-31T12:59:36.189Z,62.70
2022-10-31T13:05:18.377Z,62.93
2022-10-31T13:10:39.822Z,63.04
2022-10-31T13:16:09.547Z,62.86
2022-10-31T13:21:53.232Z,62.93
2022-10-31T13:27:00.187Z,62.68
2022-10-31T13:32:19.188Z,63.06
2022-10-31T13:37:48.809Z,63.09
2022-10-31T13:43:21.708Z,63.04
2022-10-31T13:48:42.603Z,62.98
2022-10-31T13:54:02.994Z,63.19
2022-10-31T13:59:16.504Z,63.30
2022-10-31T14:04:27.397Z,63.64
2022-10-31T14:09:45.759Z,64.15
2022-10-31T14:14:57.129Z,64.42
2022-10-31T14:20:40.097Z,64.51
2022-10-31T14:25:55.676Z,64.81
2022-10-31T14:31:22.305Z,65.11
2022-10-31T14:37:01.189Z,65.42
2022-10-31T14:42:40.258Z,65.70
2022-10-31T14:48:30.591Z,65.96
2022-10-31T14:54:13.802Z,66.27
2022-10-31T14:59:34.032Z,66.79
2022-10-31T15:04:46.614Z,67.31
2022-10-31T15:10:20.787Z,67.78
2022-10-31T15:15:29.783Z,68.34
2022-10-31T15:20:39.971Z,68.96
2022-10-31T15:25:43.426Z,69.55
2022-10-31T15:30:58.233Z,69.93
2022-10-31T15:36:09.905Z,70.53
2022-10-31T15:41:23.869Z,70.93
2022-10-31T15:47:05.324Z,71.27
2022-10-31T15:52:48.294Z,73.36
2022-10-31T15:58:16.434Z,76.94
2022-10-31T16:03:53.221Z,78.52
2022-10-31T16:09:33.378Z,78.56
2022-10-31T16:14:40.398Z,78.46
2022-10-31T16:20:04.840Z,79.57
2022-10-31T16:25:15.047Z,79.56
2022-10-31T16:30:31.840Z,79.27
2022-10-31T16:35:39.909Z,79.27
2022-10-31T16:40:45.003Z,78.98
2022-10-31T16:45:54.453Z,79.91
2022-10-31T16:51:06.356Z,80.91
2022-10-31T16:56:29.405Z,80.79
2022-10-31T17:01:39.307Z,80.70
2022-10-31T17:06:46.597Z,80.93
2022-10-31T17:11:54.882Z,81.96
2022-10-31T17:16:58.665Z,84.15
2022-10-31T17:22:03.705Z,84.57
2022-10-31T17:27:13.969Z,84.79
2022-10-31T17:32:23.660Z,84.20
2022-10-31T17:37:28.985Z,84.38
2022-10-31T17:42:36.483Z,83.87
2022-10-31T17:47:39.886Z,84.32
2022-10-31T17:52:51.990Z,84.33
2022-10-31T17:58:14.883Z,84.68
2022-10-31T18:03:25.670Z,85.28
2022-10-31T18:08:33.406Z,85.04
2022-10-31T18:13:40.160Z,85.38
2022-10-31T18:18:43.980Z,86.62
2022-10-31T18:23:48.589Z,87.58
2022-10-31T18:28:56.048Z,87.31
2022-10-31T18:33:59.669Z,87.52
2022-10-31T18:39:07.864Z,88.06
2022-10-31T18:44:14.689Z,88.69
2022-10-31T18:49:23.041Z,88.85
2022-10-31T18:54:29.588Z,88.80
2022-10-31T18:59:34.760Z,88.78
2022-10-31T19:04:41.371Z,88.65
2022-10-31T19:09:45.187Z,88.12
2022-10-31T19:14:53.115Z,87.89
2022-10-31T19:19:56.968Z,88.93
2022-10-31T19:25:00.454Z,88.59
2022-10-31T19:30:04.892Z,88.16
2022-10-31T19:35:11.317Z,88.12
2022-10-31T19:40:16.002Z,88.05
2022-10-31T19:45:19.485Z,87.96
2022-10-31T19:50:29.133Z,86.63
2022-10-31T19:55:52.692Z,85.44
2022-10-31T20:01:07.628Z,86.21
2022-10-31T20:06:52.893Z,87.15
2022-10-31T20:12:02.559Z,88.03
2022-10-31T20:17:29.731Z,88.23
2022-10-31T20:22:43.267Z,88.86
2022-10-31T20:27:56.172Z,89.50
2022-10-31T20:33:17.527Z,89.37
2022-10-31T20:38:36.136Z,89.36
2022-10-31T20:43:53.047Z,89.31
2022-10-31T20:49:05.969Z,89.45
2022-10-31T20:54:24.323Z,90.00
2022-10-31T20:59:50.492Z,89.55
2022-10-31T21:05:01.823Z,89.72
2022-10-31T21:10:23.709Z,89.92
2022-10-31T21:15:45.956Z,90.23
2022-10-31T21:20:59.029Z,90.38
2022-10-31T21:26:33.024Z,90.77
2022-10-31T21:31:44.734Z,91.19
2022-10-31T21:36:51.666Z,90.92
2022-10-31T21:41:55.056Z,91.01
2022-10-31T21:47:05.353Z,91.34
2022-10-31T21:52:09.724Z,91.72
2022-10-31T21:57:13.246Z,91.84
2022-10-31T22:02:19.756Z,91.80
2022-10-31T22:07:37.120Z,91.57
2022-10-31T22:12:44.264Z,90.99
2022-10-31T22:17:54.716Z,91.54
2022-10-31T22:22:58.452Z,92.17
2022-10-31T22:28:09.025Z,92.68
2022-10-31T22:33:18.154Z,92.80
2022-10-31T22:38:21.928Z,92.80
2022-10-31T22:43:25.795Z,93.08
2022-10-31T22:48:39.495Z,93.03
2022-10-31T22:53:43.895Z,92.57
2022-10-31T22:58:54.811Z,92.53
2022-10-31T23:04:08.113Z,92.67
2022-10-31T23:09:24.153Z,92.84
2022-10-31T23:14:31.440Z,92.60
2022-10-31T23:19:42.320Z,92.51
2022-10-31T23:24:50.401Z,92.68
2022-10-31T23:29:58.599Z,92.76
2022-10-31T23:35:04.355Z,92.70
2022-10-31T23:40:15.791Z,92.70
2022-10-31T23:45:20.833Z,92.71
2022-10-31T23:50:24.216Z,92.57
2022-10-31T23:55:27.677Z,92.38
